Maidenhead Half Marathon
Skip Navigation Links
Results
Team Results
Live Leaderboard
Course Map
Purple Patch Event Results
Race Stats
Smartphone Results
4 Sep 2016
HyperLink
Click on your name for more detailed race data
Page 1 of 30 (1495 items)
[1]234567...27282930
Pos
Bib No
Fav
Share
Print
Name
Time
Chip Time
Category
Cat Pos
Gender
Gen Pos
Club
Pace
13638Matthew RICHARDS1:12:25.21:12:24.4Top 31Male1 10.9 m/hr
23017David GREEN1:13:54.71:13:53.9Top 32Male2NORTHAMPTON ROAD RUNNERS10.6 m/hr
33462Mark MOORE1:14:11.11:14:08.8Top 33Male3SERPENTINE RC10.6 m/hr
44099George HOWARD1:15:00.71:14:59.9V401Male4RANELAGH HARRIERS10.5 m/hr
52738Paul CHEETHAM1:15:09.11:15:07.2V402Male5BARNES RUNNERS10.5 m/hr
63176Nick HUGHES1:15:10.91:15:10.2V403Male6CHILTERN HARRIERS AC10.5 m/hr
73485Andy MUTTON1:15:40.21:15:38.2Senior1Male7READING ROAD RUNNERS10.4 m/hr
82585Tracy BARLOW1:15:51.51:15:50.0Top 31Female1THAMES VALLEY HARRIERS10.4 m/hr
94058David MCCOY1:16:09.91:16:08.2Senior2Male8READING ROAD RUNNERS10.3 m/hr
103742Alan SILVESTER1:16:12.31:16:11.5Senior3Male9ARENA 80 AC10.3 m/hr
113899Brian UNDERWOOD1:16:19.01:16:16.3V404Male10POOLE AC10.3 m/hr
122885Tom EASTEN1:17:10.91:17:07.9V405Male11EALING EAGLES RUNNING CLUB10.2 m/hr
133358Stuart MACDOUGALL1:17:18.21:17:17.5Senior4Male12FULHAM RC10.2 m/hr
143002Sergio GONZALEZ MANZANEQUE1:17:41.61:17:40.9Senior5Male13LONDON HEATHSIDE10.1 m/hr
153436Jordi Martinez MEYA1:17:41.91:17:41.1Senior6Male14 10.1 m/hr
161346Steve FELL1:17:53.41:17:52.1Senior7Male15 10.1 m/hr
173951Daniel WEBBER1:18:15.71:18:13.6V406Male16MARSHALL MILTON KEYNES ATHLETIC CLUB10.0 m/hr
182525Ben ALEXANDER1:18:29.41:18:26.9Senior8Male17 10.0 m/hr
193772Jamie SMITH1:18:29.81:18:28.0Senior9Male18READING ROAD RUNNERS10.0 m/hr
203974Emily WICKS1:18:50.51:18:48.9Top 32Female2ALDERSHOT FARNHAM & DISTRICT AC10.0 m/hr
213478Hayley MUNN1:19:06.61:19:04.9Top 33Female3WINCHESTER AND DISTRICT 9.9 m/hr
223484Daniel MUTLOW1:19:10.51:19:08.2Senior10Male19VICTORIA PARK HARRIERS & TOWER HAMLETS AC 9.9 m/hr
233348Simone LUCIANI1:19:30.81:19:30.1Senior11Male20STRIDERS OF CROYDON 9.9 m/hr
241978Simon NEWTON1:19:36.41:19:33.9Senior12Male21ACKWORTH ROAD RUNNERS 9.9 m/hr
252616Adam BENNETT1:19:36.51:19:34.3Senior13Male22  9.9 m/hr
263738Simon SIKORA1:19:57.21:19:55.1Senior14Male23  9.8 m/hr
273946Alex WEBB1:20:26.31:20:22.8Senior15Male24BRACKNELL FOREST RUNNERS 9.8 m/hr
283659Nigel ROGERSON1:20:28.31:20:25.4V407Male25POOLE AC 9.8 m/hr
293346Chris LUCAS1:20:41.71:20:39.6Senior16Male26READING ROAD RUNNERS 9.7 m/hr
303945Simon WAY1:20:51.01:20:47.9V501Male27BOURNEMOUTH AC 9.7 m/hr
313048Graham HALL1:20:56.41:20:50.9V408Male28BASINGSTOKE & MID HANTS AC 9.7 m/hr
323882Adam TRIBE1:21:13.41:21:11.7V409Male29BRIGHTON AND HOVE A/C 9.7 m/hr
333723Sanjai SHARMA1:21:17.61:21:14.0V502Male30BOURNEMOUTH AC 9.7 m/hr
343702Clark SCHOFIELD1:21:37.81:21:35.2V4010Male31  9.6 m/hr
35159Stephen FRANCIS1:21:42.21:21:39.9Senior17Male32  9.6 m/hr
362807Jon CROSS1:21:55.71:21:51.3V503Male33HART ROAD RUNNERS 9.6 m/hr
373531Jose Manuel PABON1:21:59.91:21:56.7Senior18Male34EALING EAGLES RUNNING CLUB 9.6 m/hr
382737James CHASEN1:22:05.91:21:59.8Senior19Male35HARPENDEN ARROWS 9.6 m/hr
391706Paul HERBERT1:22:21.21:22:18.2Senior20Male36BRACKNELL FOREST RUNNERS 9.5 m/hr
403458Louis MONTFORT1:22:21.91:22:14.4Senior21Male37  9.5 m/hr
412961Chris FURNESS1:22:35.21:22:30.8V4011Male38BASINGSTOKE & MID HANTS AC 9.5 m/hr
423644Adam ROBERTS1:22:42.91:22:34.5Senior22Male39  9.5 m/hr
432604Jonathan BEATTY1:22:50.61:22:45.3Senior23Male40KENT AC 9.5 m/hr
442844David DE JONG1:23:06.41:23:02.4Senior24Male41BRACKNELL FOREST RUNNERS 9.5 m/hr
452945Andrew FRAYLING1:23:24.31:23:17.2V4012Male42VICTORY AC 9.4 m/hr
462677Matthew BROWN1:23:25.01:23:17.6V4013Male43  9.4 m/hr
473501Paul NIXON1:23:25.71:23:22.4Senior25Male44  9.4 m/hr
483858Dean THATCHER1:23:29.81:23:24.2Senior26Male45WARGRAVE RUNNERS 9.4 m/hr
494162Tom LOVEGROVE1:23:40.01:23:32.2Senior27Male46  9.4 m/hr
503982Dan WILLIAMS1:23:48.61:23:43.1Senior28Male47  9.4 m/hr
Page 1 of 30 (1495 items)
[1]234567...27282930
fb

HyperLink Copyright (c) G Vincent, 2018